Time;durP1;ratioP1;P1;durP2;ratioP2;P2;SDS_P1;SDS_P2;PMS_P1;PMS_P2;Temp;Humidity;BMP_temperature;BMP_pressure;BME280_temperature;BME280_humidity;BME280_pressure;Samples;Min_cycle;Max_cycle;Signal;HPM_P1;HPM_P2
2021/06/29 00:01:46;;;;;;;23.92;19.55;;;;;;;19.92;84.84;101196.00;5110144;28;20639;-55
2021/06/29 00:04:13;;;;;;;23.52;19.42;;;;;;;19.89;85.04;101195.47;5109808;28;20058;-55
2021/06/29 00:06:40;;;;;;;24.90;20.42;;;;;;;19.84;85.46;101198.59;5110616;28;20543;-55
2021/06/29 00:09:07;;;;;;;24.75;20.83;;;;;;;19.86;85.11;101187.78;5110083;28;20100;-54
2021/06/29 00:11:38;;;;;;;26.70;21.00;;;;;;;19.79;85.60;101197.34;5110137;28;20457;-54
2021/06/29 00:14:05;;;;;;;30.10;21.15;;;;;;;19.76;85.75;101190.50;5110411;28;20059;-56
2021/06/29 00:16:32;;;;;;;25.70;20.73;;;;;;;19.85;85.40;101186.94;5109533;28;20107;-55
2021/06/29 00:18:59;;;;;;;25.30;21.10;;;;;;;19.85;85.25;101194.09;5109157;28;20531;-55
2021/06/29 00:21:26;;;;;;;26.20;20.05;;;;;;;19.83;85.04;101196.09;5110437;28;20043;-53
2021/06/29 00:23:52;;;;;;;26.83;21.25;;;;;;;19.87;85.00;101205.47;5110374;28;20062;-53
2021/06/29 00:26:19;;;;;;;24.55;21.25;;;;;;;19.82;85.48;101202.41;5091871;28;20062;-53
2021/06/29 00:28:46;;;;;;;26.60;21.65;;;;;;;19.80;85.69;101199.03;5110394;28;20047;-54
2021/06/29 00:31:13;;;;;;;27.00;20.88;;;;;;;19.70;85.83;101191.94;5074290;28;20536;-55
2021/06/29 00:33:40;;;;;;;24.25;20.15;;;;;;;19.74;85.49;101187.97;5109883;28;20051;-62
2021/06/29 00:36:08;;;;;;;26.85;20.20;;;;;;;19.72;85.58;101186.44;5108101;28;20055;-61
2021/06/29 00:38:34;;;;;;;26.35;21.02;;;;;;;19.62;86.58;101183.84;5110893;28;20070;-61
2021/06/29 00:41:02;;;;;;;26.98;21.33;;;;;;;19.62;86.60;101191.00;5109584;28;20035;-55
2021/06/29 00:43:29;;;;;;;26.38;20.77;;;;;;;19.58;86.67;101190.47;5109581;28;20138;-55
2021/06/29 00:45:56;;;;;;;25.55;21.80;;;;;;;19.60;87.06;101191.16;5109865;28;20119;-54
2021/06/29 00:48:22;;;;;;;24.58;20.45;;;;;;;19.58;86.81;101193.97;5109462;28;20045;-55
2021/06/29 00:50:50;;;;;;;27.00;20.75;;;;;;;19.61;87.00;101194.69;5108979;28;20093;-55
2021/06/29 00:53:16;;;;;;;27.52;20.90;;;;;;;19.61;86.92;101195.50;5092340;28;20055;-55
2021/06/29 00:55:44;;;;;;;25.58;20.83;;;;;;;19.65;86.51;101186.22;5110474;28;20078;-61
2021/06/29 00:58:12;;;;;;;26.30;19.58;;;;;;;19.68;86.07;101183.22;5091394;28;20066;-61
2021/06/29 01:00:41;;;;;;;29.15;21.73;;;;;;;19.66;86.67;101185.22;5074421;28;20115;-61
2021/06/29 01:03:08;;;;;;;30.13;21.98;;;;;;;19.68;86.50;101180.56;5109106;28;20104;-61
2021/06/29 01:05:36;;;;;;;30.27;21.08;;;;;;;19.65;86.58;101177.38;5109543;28;20492;-61
2021/06/29 01:08:03;;;;;;;31.20;22.70;;;;;;;19.59;87.20;101176.13;5109334;28;20056;-61
2021/06/29 01:10:30;;;;;;;30.27;22.70;;;;;;;19.51;88.04;101173.38;5110396;28;20036;-61
2021/06/29 01:12:57;;;;;;;29.38;21.98;;;;;;;19.49;87.73;101164.69;5108967;28;20051;-61
2021/06/29 01:15:24;;;;;;;29.88;21.02;;;;;;;19.54;87.65;101167.75;5109114;28;20058;-61
2021/06/29 01:17:56;;;;;;;31.15;21.60;;;;;;;19.48;87.81;101165.69;5109588;28;20063;-61
2021/06/29 01:20:32;;;;;;;32.33;21.83;;;;;;;19.48;88.00;101166.50;5109265;28;20044;-61
2021/06/29 01:23:06;;;;;;;28.05;21.60;;;;;;;19.47;87.93;101169.34;5075895;28;20101;-61
2021/06/29 01:25:33;;;;;;;28.77;20.58;;;;;;;19.41;88.02;101166.31;5110152;28;20055;-61
2021/06/29 01:28:18;;;;;;;27.95;20.42;;;;;;;19.47;87.82;101167.53;5109312;28;20051;-61
2021/06/29 01:31:06;;;;;;;25.98;20.05;;;;;;;19.46;88.06;101167.69;5094044;28;20051;-55
2021/06/29 01:33:33;;;;;;;28.42;20.10;;;;;;;19.45;87.88;101158.00;5109216;28;20051;-61
2021/06/29 01:36:00;;;;;;;25.55;20.08;;;;;;;19.49;87.23;101159.38;5091378;28;20059;-61
2021/06/29 01:38:27;;;;;;;26.75;20.77;;;;;;;19.47;87.65;101158.66;5109657;28;20043;-61
2021/06/29 01:40:54;;;;;;;25.30;19.55;;;;;;;19.45;87.84;101163.31;5109270;28;20430;-60
2021/06/29 01:43:34;;;;;;;30.70;20.33;;;;;;;19.47;87.84;101172.00;5109274;28;20047;-60
2021/06/29 01:46:01;;;;;;;27.40;19.45;;;;;;;19.48;87.40;101179.84;5108943;28;20054;-61
2021/06/29 01:48:32;;;;;;;27.98;19.88;;;;;;;19.50;87.64;101174.38;5094768;28;20047;-61
2021/06/29 01:50:59;;;;;;;24.70;19.13;;;;;;;19.48;87.42;101179.03;5112097;28;20556;-60
2021/06/29 01:53:26;;;;;;;26.73;19.25;;;;;;;19.52;87.38;101175.06;5113050;28;20062;-61
2021/06/29 01:55:53;;;;;;;28.20;20.30;;;;;;;19.54;87.14;101173.09;5113352;28;20466;-61
2021/06/29 01:58:24;;;;;;;26.00;20.83;;;;;;;19.50;87.35;101167.22;5112629;28;20062;-61
2021/06/29 02:00:52;;;;;;;30.35;20.50;;;;;;;19.43;88.07;101161.63;5112285;28;20500;-60
2021/06/29 02:03:19;;;;;;;29.40;19.48;;;;;;;19.48;87.90;101163.03;5094623;28;20500;-60
2021/06/29 02:05:46;;;;;;;27.15;19.52;;;;;;;19.49;88.48;101162.88;5112253;28;20674;-61
2021/06/29 02:08:13;;;;;;;28.35;18.63;;;;;;;19.45;88.54;101166.81;5113244;28;20067;-60
2021/06/29 02:10:40;;;;;;;29.95;19.42;;;;;;;19.40;88.65;101156.63;5113389;28;20070;-60
2021/06/29 02:13:07;;;;;;;29.52;20.35;;;;;;;19.39;88.62;101154.94;5112069;28;20089;-53
2021/06/29 02:15:34;;;;;;;32.88;18.75;;;;;;;19.39;89.07;101159.44;5112951;28;20064;-54
2021/06/29 02:18:01;;;;;;;32.08;20.58;;;;;;;19.38;89.23;101158.59;5094174;28;20122;-54
2021/06/29 02:20:28;;;;;;;34.00;19.08;;;;;;;19.40;89.28;101156.63;5094385;28;20074;-53
2021/06/29 02:22:55;;;;;;;32.97;20.85;;;;;;;19.43;89.12;101155.47;5112473;28;20044;-52
2021/06/29 02:25:22;;;;;;;28.35;18.77;;;;;;;19.49;89.46;101144.19;5095152;28;20047;-51
2021/06/29 02:27:49;;;;;;;33.33;20.05;;;;;;;19.48;89.48;101139.00;5112323;28;20069;-49
2021/06/29 02:30:16;;;;;;;30.80;20.05;;;;;;;19.43;89.15;101136.81;5112452;28;20040;-52
2021/06/29 02:32:43;;;;;;;29.88;19.88;;;;;;;19.48;89.64;101142.50;5112082;28;20063;-54
2021/06/29 02:35:11;;;;;;;28.67;20.00;;;;;;;19.46;89.67;101141.84;5111774;28;20108;-53
2021/06/29 02:37:37;;;;;;;30.73;18.75;;;;;;;19.43;89.16;101148.31;5112644;28;20043;-52
2021/06/29 02:40:06;;;;;;;29.55;19.25;;;;;;;19.42;89.31;101130.63;5077447;28;20051;-58
2021/06/29 02:42:33;;;;;;;29.40;19.05;;;;;;;19.34;89.72;101122.53;5093948;28;20044;-58
2021/06/29 02:45:07;;;;;;;27.98;19.20;;;;;;;19.35;89.97;101120.72;5111378;28;20048;-58
2021/06/29 02:47:35;;;;;;;25.17;17.88;;;;;;;19.32;90.33;101113.88;5111912;28;20051;-52
2021/06/29 02:50:07;;;;;;;27.23;19.08;;;;;;;19.27;90.49;101113.47;5110870;28;20051;-58
2021/06/29 02:52:34;;;;;;;24.42;17.90;;;;;;;19.25;90.59;101104.78;5111920;28;20048;-58
2021/06/29 02:55:03;;;;;;;25.35;18.15;;;;;;;19.19;89.98;101105.38;5112022;28;20048;-58
2021/06/29 02:57:29;;;;;;;26.83;18.63;;;;;;;19.09;90.63;101102.78;5111734;28;20055;-59
2021/06/29 02:59:56;;;;;;;25.58;18.10;;;;;;;19.17;90.21;101108.22;5110178;28;20055;-59
2021/06/29 03:02:23;;;;;;;26.17;19.02;;;;;;;19.18;90.66;101109.03;5111334;28;20067;-58
2021/06/29 03:04:51;;;;;;;26.88;18.95;;;;;;;19.19;90.25;101116.88;5111040;28;20055;-58
2021/06/29 03:07:17;;;;;;;26.80;19.80;;;;;;;19.21;90.00;101120.25;5093703;28;20056;-59
2021/06/29 03:09:44;;;;;;;24.85;18.48;;;;;;;19.21;89.98;101111.41;5094018;28;20495;-58
2021/06/29 03:12:11;;;;;;;25.08;17.90;;;;;;;19.28;89.98;101115.16;5092690;28;20101;-58
2021/06/29 03:14:40;;;;;;;24.05;18.30;;;;;;;19.27;89.42;101113.47;5110757;28;20063;-58
2021/06/29 03:17:07;;;;;;;23.75;17.88;;;;;;;19.25;89.45;101110.09;5110533;28;20044;-52
2021/06/29 03:19:35;;;;;;;24.55;16.58;;;;;;;19.20;89.75;101118.56;5075762;28;20423;-51
2021/06/29 03:22:03;;;;;;;23.33;18.17;;;;;;;19.20;89.58;101113.22;5093070;28;20055;-52
2021/06/29 03:24:30;;;;;;;22.58;17.27;;;;;;;19.14;90.03;101105.00;5111265;28;20503;-52
2021/06/29 03:26:57;;;;;;;22.77;17.15;;;;;;;19.18;90.10;101103.72;5092537;28;20112;-52
2021/06/29 03:29:24;;;;;;;23.85;18.02;;;;;;;19.20;90.02;101107.91;5111233;28;20043;-57
2021/06/29 03:31:51;;;;;;;22.27;17.80;;;;;;;19.19;89.98;101111.56;5092578;28;20051;-58
2021/06/29 03:34:22;;;;;;;23.65;17.25;;;;;;;19.20;89.74;101120.41;5110543;28;20052;-53
2021/06/29 03:36:50;;;;;;;23.20;17.02;;;;;;;19.19;89.78;101129.38;5111326;28;20051;-59
2021/06/29 03:39:17;;;;;;;23.42;18.50;;;;;;;19.16;89.75;101127.84;5093262;28;20060;-53
2021/06/29 03:41:44;;;;;;;21.30;17.23;;;;;;;19.22;89.30;101129.94;5092827;28;20419;-53
2021/06/29 03:44:11;;;;;;;20.30;16.95;;;;;;;19.26;89.24;101127.78;5093435;28;20047;-53
2021/06/29 03:46:37;;;;;;;20.80;17.35;;;;;;;19.21;89.42;101120.25;5092166;28;20108;-52
2021/06/29 03:49:05;;;;;;;22.80;17.17;;;;;;;19.13;89.55;101121.97;5110335;28;20508;-54
2021/06/29 03:51:31;;;;;;;22.17;17.75;;;;;;;19.12;90.03;101131.81;5110714;28;20048;-53
2021/06/29 03:53:58;;;;;;;23.80;17.83;;;;;;;19.17;89.77;101137.53;5092703;28;20052;-52
2021/06/29 03:56:29;;;;;;;21.23;17.23;;;;;;;19.19;89.74;101132.88;5092232;28;20055;-55
2021/06/29 03:59:01;;;;;;;23.20;17.73;;;;;;;19.23;89.30;101125.44;5092981;28;20043;-50
2021/06/29 04:01:28;;;;;;;21.98;17.42;;;;;;;19.24;89.39;101119.94;5109618;28;20039;-52
2021/06/29 04:03:57;;;;;;;23.58;18.50;;;;;;;19.20;89.89;101115.91;5091893;28;20853;-52
2021/06/29 04:06:26;;;;;;;23.85;18.25;;;;;;;19.03;91.20;101117.56;5111169;28;20059;-52
2021/06/29 04:08:54;;;;;;;24.70;18.88;;;;;;;19.06;90.82;101117.25;5111037;28;20055;-49
2021/06/29 04:11:21;;;;;;;25.42;19.88;;;;;;;19.17;90.83;101110.03;5109719;28;20044;-53
2021/06/29 04:13:48;;;;;;;24.80;19.10;;;;;;;19.18;90.23;101109.03;5110638;28;20051;-52
2021/06/29 04:16:15;;;;;;;26.75;20.08;;;;;;;19.18;90.57;101107.22;5110387;28;20051;-52
2021/06/29 04:18:43;;;;;;;27.85;20.10;;;;;;;19.21;90.78;101109.59;5074779;28;20063;-52
2021/06/29 04:21:10;;;;;;;25.38;20.02;;;;;;;19.28;90.56;101107.16;5074754;28;20043;-54
2021/06/29 04:23:38;;;;;;;26.27;19.38;;;;;;;19.30;90.60;101102.50;5110586;28;20402;-50
2021/06/29 04:26:05;;;;;;;27.33;19.60;;;;;;;19.34;90.33;101116.38;5109937;28;20055;-51
2021/06/29 04:28:32;;;;;;;29.40;20.95;;;;;;;19.36;90.35;101112.56;5110133;28;20043;-51
2021/06/29 04:31:00;;;;;;;28.13;20.50;;;;;;;19.23;90.44;101110.25;5109694;28;20048;-51
2021/06/29 04:33:27;;;;;;;27.83;19.67;;;;;;;19.28;90.61;101106.31;5091874;28;20508;-53
2021/06/29 04:35:53;;;;;;;28.35;19.33;;;;;;;19.32;90.69;101116.53;5091662;28;20081;-59
2021/06/29 04:38:20;;;;;;;29.23;20.33;;;;;;;19.39;90.36;101111.44;5110269;28;20105;-59
2021/06/29 04:40:47;;;;;;;27.95;20.48;;;;;;;19.42;90.18;101103.94;5092047;28;20088;-52
2021/06/29 04:43:14;;;;;;;29.65;20.23;;;;;;;19.43;89.71;101105.63;5109772;28;20538;-50
2021/06/29 04:45:40;;;;;;;27.08;19.65;;;;;;;19.41;90.19;101104.97;5091606;28;20066;-52
2021/06/29 04:48:08;;;;;;;27.67;20.67;;;;;;;19.45;89.81;101100.16;5109184;28;20050;-51
2021/06/29 04:50:34;;;;;;;29.55;20.63;;;;;;;19.47;90.22;101100.84;5109118;28;20044;-58
2021/06/29 04:53:01;;;;;;;28.63;20.25;;;;;;;19.51;90.19;101099.56;5092177;28;20049;-59
2021/06/29 04:55:32;;;;;;;30.08;20.95;;;;;;;19.53;90.14;101108.22;5109863;28;20051;-59
2021/06/29 04:57:59;;;;;;;31.10;21.52;;;;;;;19.53;90.26;101104.72;5109469;28;20139;-59
2021/06/29 05:00:27;;;;;;;28.92;20.17;;;;;;;19.55;90.44;101103.59;5109186;28;20055;-59
2021/06/29 05:02:53;;;;;;;32.25;21.33;;;;;;;19.56;90.63;101107.91;5109593;28;20113;-59
2021/06/29 05:05:22;;;;;;;30.17;21.08;;;;;;;19.58;90.37;101100.63;5109468;28;20047;-59
2021/06/29 05:07:49;;;;;;;29.85;21.55;;;;;;;19.63;90.45;101096.66;5074718;28;20052;-59
2021/06/29 05:10:17;;;;;;;30.95;21.52;;;;;;;19.64;91.05;101109.81;5109482;28;20518;-61
2021/06/29 05:12:48;;;;;;;30.70;21.60;;;;;;;19.62;90.49;101095.81;5108716;28;20598;-59
2021/06/29 05:15:15;;;;;;;29.17;20.38;;;;;;;19.64;89.53;101091.16;5109090;28;20124;-59
2021/06/29 05:17:42;;;;;;;27.60;19.58;;;;;;;19.67;89.36;101095.34;5109499;28;20040;-59
2021/06/29 05:20:09;;;;;;;30.30;20.88;;;;;;;19.71;89.46;101089.53;5108558;28;20048;-59
2021/06/29 05:22:36;;;;;;;32.05;22.08;;;;;;;19.74;89.89;101093.72;5093967;28;20078;-60
2021/06/29 05:25:04;;;;;;;30.02;21.02;;;;;;;19.72;89.86;101101.91;5113615;28;20058;-58
2021/06/29 05:27:31;;;;;;;30.00;20.42;;;;;;;19.71;89.47;101105.53;5095382;28;20054;-59
2021/06/29 05:29:58;;;;;;;29.40;20.95;;;;;;;19.74;88.99;101104.41;5112917;28;20058;-59
2021/06/29 05:32:25;;;;;;;29.15;21.55;;;;;;;19.78;89.25;101103.09;5095453;28;20067;-59
2021/06/29 05:34:52;;;;;;;28.67;20.77;;;;;;;19.83;89.62;101103.53;5112289;28;20062;-59
2021/06/29 05:37:19;;;;;;;30.42;20.70;;;;;;;19.88;89.73;101106.56;5113932;28;20044;-59
2021/06/29 05:39:45;;;;;;;27.92;20.10;;;;;;;19.86;89.63;101110.38;5113814;28;20391;-59
2021/06/29 05:42:12;;;;;;;26.63;20.35;;;;;;;19.89;89.69;101110.06;5113043;28;20447;-59
2021/06/29 05:44:39;;;;;;;31.23;21.73;;;;;;;19.96;89.99;101105.81;5112397;28;20063;-60
2021/06/29 05:47:09;;;;;;;31.42;22.98;;;;;;;19.97;89.85;101096.78;5112952;28;20538;-60
2021/06/29 05:49:36;;;;;;;31.80;23.25;;;;;;;19.97;90.08;101088.78;5112269;28;20507;-60
2021/06/29 05:52:03;;;;;;;33.20;22.75;;;;;;;19.91;90.13;101092.09;5112999;28;20035;-59
2021/06/29 05:54:30;;;;;;;34.67;23.17;;;;;;;19.81;90.34;101110.84;5112873;28;20442;-60
2021/06/29 05:56:57;;;;;;;32.15;21.42;;;;;;;19.90;90.22;101103.75;5112239;28;20096;-60
2021/06/29 05:59:24;;;;;;;26.55;20.52;;;;;;;19.93;90.03;101096.28;5112703;28;20044;-59
2021/06/29 06:01:52;;;;;;;27.95;21.65;;;;;;;19.96;90.02;101097.78;5111966;28;20377;-60
2021/06/29 06:04:19;;;;;;;27.52;20.35;;;;;;;20.04;89.47;101097.84;5112453;28;20047;-60
2021/06/29 06:06:46;;;;;;;26.75;19.75;;;;;;;20.02;89.96;101096.34;5095484;28;20365;-60
2021/06/29 06:09:13;;;;;;;26.13;19.75;;;;;;;19.99;89.93;101092.13;5113356;28;20171;-60
2021/06/29 06:11:40;;;;;;;25.88;18.80;;;;;;;19.99;89.54;101092.13;5111649;28;20414;-61
2021/06/29 06:14:07;;;;;;;26.80;19.92;;;;;;;20.05;89.81;101090.69;5112390;28;20066;-52
2021/06/29 06:16:33;;;;;;;29.15;20.17;;;;;;;19.96;89.15;101095.13;5093892;28;20039;-52
2021/06/29 06:19:00;;;;;;;27.42;20.45;;;;;;;20.01;89.01;101098.16;5111698;28;20054;-54
2021/06/29 06:21:27;;;;;;;27.23;18.58;;;;;;;20.13;89.00;101097.91;5112667;28;20040;-52
2021/06/29 06:23:54;;;;;;;25.05;19.45;;;;;;;20.15;88.14;101098.56;5112769;28;20040;-53
2021/06/29 06:26:21;;;;;;;25.67;19.17;;;;;;;20.13;88.22;101104.06;5112776;28;20490;-54
2021/06/29 06:28:47;;;;;;;28.80;20.52;;;;;;;20.16;88.80;101113.59;5112289;28;20044;-60
2021/06/29 06:31:14;;;;;;;26.25;18.98;;;;;;;20.16;89.30;101109.09;5112272;28;20124;-61
2021/06/29 06:33:41;;;;;;;24.40;18.38;;;;;;;20.25;89.22;101110.00;5110236;28;20051;-61
2021/06/29 06:36:10;;;;;;;25.08;18.27;;;;;;;20.27;88.09;101103.50;5112178;28;20166;-61
2021/06/29 06:38:37;;;;;;;23.75;16.90;;;;;;;20.30;87.74;101098.84;5093815;28;20571;-61
2021/06/29 06:41:05;;;;;;;25.85;18.20;;;;;;;20.35;87.60;101108.03;5112038;28;20062;-60
2021/06/29 06:43:32;;;;;;;25.80;19.35;;;;;;;20.40;87.09;101108.41;5112096;28;20055;-60
2021/06/29 06:45:58;;;;;;;28.13;19.70;;;;;;;20.38;86.39;101114.91;5111586;28;20040;-61
2021/06/29 06:48:25;;;;;;;26.88;20.08;;;;;;;20.40;86.49;101104.91;5111871;28;20124;-61
2021/06/29 06:50:52;;;;;;;24.80;19.63;;;;;;;20.42;86.47;101103.78;5093057;28;20043;-61
2021/06/29 06:53:19;;;;;;;28.85;20.65;;;;;;;20.46;86.49;101098.09;5112453;28;20047;-60
2021/06/29 06:55:46;;;;;;;29.05;21.77;;;;;;;20.53;86.65;101100.00;5111664;28;20483;-61
2021/06/29 06:58:12;;;;;;;30.10;22.00;;;;;;;20.58;86.23;101107.50;5111460;28;20047;-61
2021/06/29 07:00:39;;;;;;;31.15;22.70;;;;;;;20.67;85.51;101106.56;5089913;28;20068;-61
2021/06/29 07:03:06;;;;;;;30.75;22.48;;;;;;;20.72;85.43;101104.28;5090929;28;20052;-61
2021/06/29 07:05:33;;;;;;;30.40;21.63;;;;;;;20.76;85.63;101112.81;5090290;28;20362;-62
2021/06/29 07:08:00;;;;;;;31.30;22.23;;;;;;;20.86;85.30;101110.84;5091313;28;20380;-61
2021/06/29 07:10:27;;;;;;;30.75;22.25;;;;;;;20.89;84.66;101121.22;5092143;28;20454;-62
2021/06/29 07:12:54;;;;;;;33.20;23.88;;;;;;;20.85;84.26;101116.38;5090492;28;20903;-62
2021/06/29 07:15:21;;;;;;;30.67;21.10;;;;;;;20.85;83.43;101121.72;5091091;28;20044;-53
2021/06/29 07:17:48;;;;;;;29.60;22.58;;;;;;;20.83;84.11;101132.53;5090644;28;20105;-54
2021/06/29 07:20:15;;;;;;;29.77;22.30;;;;;;;20.86;82.53;101126.03;5089482;28;20040;-53
2021/06/29 07:22:42;;;;;;;31.35;22.63;;;;;;;20.82;83.63;101124.69;5091384;28;20508;-54
2021/06/29 07:25:09;;;;;;;28.45;21.38;;;;;;;20.84;83.98;101112.00;5090029;28;20054;-55
2021/06/29 07:27:36;;;;;;;29.50;22.70;;;;;;;20.89;83.24;101110.53;5090252;28;20040;-54
2021/06/29 07:30:06;;;;;;;29.67;21.73;;;;;;;20.82;84.38;101108.66;5088536;28;20048;-55
2021/06/29 07:32:32;;;;;;;31.90;23.35;;;;;;;20.69;83.95;101107.25;5090674;28;20377;-53
2021/06/29 07:34:59;;;;;;;29.88;22.55;;;;;;;20.76;84.31;101112.81;5088692;28;20055;-56
2021/06/29 07:37:31;;;;;;;32.38;23.88;;;;;;;20.82;85.73;101108.66;5090678;28;20120;-53
2021/06/29 07:39:58;;;;;;;30.60;23.10;;;;;;;20.91;85.11;101108.53;5090583;28;20501;-54
2021/06/29 07:42:24;;;;;;;29.25;22.63;;;;;;;20.84;85.02;101102.16;5090720;28;20043;-59
2021/06/29 07:44:51;;;;;;;30.42;23.38;;;;;;;20.83;84.66;101108.47;5089863;28;20101;-59
2021/06/29 07:47:18;;;;;;;31.13;23.17;;;;;;;20.75;85.63;101103.97;5090678;28;20052;-59
2021/06/29 07:49:45;;;;;;;29.67;23.95;;;;;;;20.70;85.31;101110.78;5089964;28;20048;-58
2021/06/29 07:52:11;;;;;;;30.92;23.83;;;;;;;20.65;84.98;101111.22;5091190;28;20044;-59
2021/06/29 07:54:38;;;;;;;31.88;24.73;;;;;;;20.61;84.81;101117.88;5089680;28;20036;-53
2021/06/29 07:57:05;;;;;;;31.45;23.60;;;;;;;20.64;84.80;101114.88;5089553;28;20048;-59
2021/06/29 07:59:32;;;;;;;34.00;24.77;;;;;;;20.53;85.09;101116.03;5090798;28;20504;-57
2021/06/29 08:01:59;;;;;;;32.97;23.67;;;;;;;20.54;85.10;101114.19;5110328;28;20055;-56
2021/06/29 08:04:26;;;;;;;33.30;25.10;;;;;;;20.47;86.42;101113.16;5110164;28;20060;-57
2021/06/29 08:06:53;;;;;;;35.67;25.92;;;;;;;20.44;86.76;101112.44;5110791;28;20052;-57
2021/06/29 08:09:19;;;;;;;34.10;24.98;;;;;;;20.47;86.03;101111.28;5111046;28;20055;-53
2021/06/29 08:12:04;;;;;;;32.70;23.17;;;;;;;20.52;86.16;101111.66;5093875;28;20040;-57
2021/06/29 08:14:31;;;;;;;32.15;23.42;;;;;;;20.42;86.25;101113.59;5110676;28;20495;-57
2021/06/29 08:16:58;;;;;;;31.15;24.23;;;;;;;20.41;86.75;101107.44;5109476;28;20050;-58
2021/06/29 08:19:25;;;;;;;34.05;24.42;;;;;;;20.50;86.45;101118.97;5091844;28;20067;-58
2021/06/29 08:21:51;;;;;;;31.45;22.75;;;;;;;20.47;86.54;101118.47;5092744;28;20040;-54
2021/06/29 08:24:18;;;;;;;30.35;23.05;;;;;;;20.38;85.77;101112.25;5111164;28;20500;-58
2021/06/29 08:26:45;;;;;;;32.13;22.98;;;;;;;20.38;86.60;101118.44;5109798;28;20070;-57
2021/06/29 08:29:12;;;;;;;31.90;23.35;;;;;;;20.37;86.58;101108.75;5092517;28;20051;-58
2021/06/29 08:31:39;;;;;;;33.30;23.33;;;;;;;20.33;86.59;101110.06;5091541;28;20047;-54
2021/06/29 08:34:06;;;;;;;33.50;23.73;;;;;;;20.40;86.31;101111.09;5109514;28;20098;-54
2021/06/29 08:36:40;;;;;;;31.25;24.42;;;;;;;20.42;86.18;101119.78;5109652;28;20047;-59
2021/06/29 08:39:09;;;;;;;32.05;22.83;;;;;;;20.37;85.98;101118.56;5077727;28;20047;-59
2021/06/29 08:41:39;;;;;;;31.95;23.33;;;;;;;20.43;85.44;101118.78;5109508;28;20052;-54
2021/06/29 08:44:06;;;;;;;32.40;23.40;;;;;;;20.27;86.50;101121.34;5110178;28;20488;-55
2021/06/29 08:46:33;;;;;;;34.88;25.23;;;;;;;20.22;85.38;101123.66;5074519;28;20851;-52
2021/06/29 08:49:03;;;;;;;36.13;23.92;;;;;;;20.36;85.88;101125.75;5091304;28;20066;-54
2021/06/29 08:51:45;;;;;;;32.10;23.55;;;;;;;20.32;86.03;101119.06;5094357;28;20383;-59
2021/06/29 08:54:14;;;;;;;32.38;24.75;;;;;;;20.29;86.26;101129.19;5110470;28;20230;-58
2021/06/29 08:56:45;;;;;;;36.53;24.55;;;;;;;20.24;87.43;101129.69;5108810;28;20047;-54
2021/06/29 08:59:12;;;;;;;30.77;22.33;;;;;;;20.35;86.21;101129.41;5092561;28;20052;-58
2021/06/29 09:01:39;;;;;;;38.42;26.08;;;;;;;20.32;86.50;101121.72;5108568;28;20052;-59
2021/06/29 09:04:06;;;;;;;32.97;24.35;;;;;;;20.32;86.49;101126.25;5108612;28;20515;-58
2021/06/29 09:06:39;;;;;;;34.17;24.23;;;;;;;20.34;85.85;101130.44;5109356;28;20563;-58
2021/06/29 09:09:22;;;;;;;31.60;23.77;;;;;;;20.31;85.36;101127.22;5091766;28;20760;-58
2021/06/29 09:11:49;;;;;;;36.00;24.58;;;;;;;20.39;86.07;101125.44;5091293;28;20123;-58
2021/06/29 09:14:16;;;;;;;36.22;25.73;;;;;;;20.35;85.47;101118.72;5091583;28;20040;-58
2021/06/29 09:16:44;;;;;;;35.35;25.13;;;;;;;20.42;85.78;101118.94;5091243;28;20060;-58
2021/06/29 09:19:12;;;;;;;38.53;27.42;;;;;;;20.59;86.15;101131.41;5109404;28;20048;-57
2021/06/29 09:21:38;;;;;;;36.92;25.45;;;;;;;20.65;85.32;101135.25;5092026;28;20046;-58
2021/06/29 09:24:06;;;;;;;36.03;25.90;;;;;;;20.68;85.59;101143.00;5109664;28;20051;-58
2021/06/29 09:26:41;;;;;;;36.45;26.08;;;;;;;20.61;85.53;101131.22;5108777;28;20988;-52
2021/06/29 09:29:07;;;;;;;35.92;24.58;;;;;;;20.52;84.75;101129.50;5109465;28;20059;-59
2021/06/29 09:31:36;;;;;;;33.78;24.02;;;;;;;20.51;84.79;101122.50;5108392;28;20048;-60
2021/06/29 09:34:05;;;;;;;37.72;25.10;;;;;;;20.68;85.46;101123.41;5108875;28;20686;-55
2021/06/29 09:36:35;;;;;;;34.75;24.90;;;;;;;20.79;84.48;101125.00;5090892;28;20066;-53
2021/06/29 09:39:06;;;;;;;35.20;24.25;;;;;;;20.89;85.47;101123.06;5109419;28;20500;-55
2021/06/29 09:41:35;;;;;;;31.60;24.02;;;;;;;20.86;83.31;101126.88;5108894;28;20055;-56
2021/06/29 09:44:08;;;;;;;36.05;25.35;;;;;;;20.90;83.92;101130.06;5109428;28;20052;-55
2021/06/29 09:46:37;;;;;;;35.10;25.30;;;;;;;20.88;82.07;101129.41;5108255;28;20063;-61
2021/06/29 09:49:14;;;;;;;36.10;25.02;;;;;;;20.98;82.03;101134.59;5108611;28;20514;-61
2021/06/29 09:51:53;;;;;;;36.38;27.05;;;;;;;21.01;81.69;101135.13;5092544;28;20527;-61
2021/06/29 09:54:21;;;;;;;38.53;27.02;;;;;;;21.11;80.79;101143.00;5091700;28;20116;-61
2021/06/29 09:56:49;;;;;;;37.03;26.20;;;;;;;21.27;81.11;101136.88;5108601;28;20065;-55
2021/06/29 09:59:20;;;;;;;38.92;27.67;;;;;;;21.44;79.14;101135.91;5092147;28;20051;-54
2021/06/29 10:01:48;;;;;;;37.33;27.15;;;;;;;21.62;80.03;101132.28;5089916;28;20059;-55
2021/06/29 10:04:16;;;;;;;34.92;26.30;;;;;;;21.64;78.57;101135.66;5110039;28;20075;-55
2021/06/29 10:06:43;;;;;;;38.13;27.27;;;;;;;21.60;78.02;101134.31;5101286;28;20040;-56
2021/06/29 10:09:15;;;;;;;36.75;27.90;;;;;;;21.87;78.38;101132.28;5106241;28;20055;-57
2021/06/29 10:11:43;;;;;;;33.38;25.48;;;;;;;21.98;77.01;101133.78;5105739;27;20047;-56
2021/06/29 10:14:12;;;;;;;35.00;26.33;;;;;;;21.97;75.64;101130.28;5111404;27;20043;-56
2021/06/29 10:16:47;;;;;;;32.03;25.92;;;;;;;21.99;75.05;101140.84;5112736;27;20059;-57
2021/06/29 10:21:59;;;;;;;36.55;26.08;;;;;;;22.35;77.20;101132.47;5130950;27;20074;-56
2021/06/29 10:24:28;;;;;;;32.08;24.35;;;;;;;22.51;75.55;101132.44;5128836;27;20066;-56
2021/06/29 10:26:57;;;;;;;29.42;23.75;;;;;;;22.52;73.94;101138.59;5104122;27;20096;-58
2021/06/29 10:29:27;;;;;;;33.30;24.45;;;;;;;22.81;76.06;101139.84;5122947;27;20042;-57
2021/06/29 10:31:59;;;;;;;30.30;23.85;;;;;;;22.96;74.16;101132.78;5095982;27;20047;-57
2021/06/29 10:34:25;;;;;;;29.50;21.73;;;;;;;22.96;72.45;101130.09;5116726;27;20109;-57
2021/06/29 10:36:54;;;;;;;26.63;20.63;;;;;;;23.19;72.89;101134.69;5123983;27;20437;-57
2021/06/29 10:39:27;;;;;;;27.98;22.15;;;;;;;23.14;69.14;101129.84;5106922;27;20077;-57
2021/06/29 10:42:00;;;;;;;;;;;;;;;23.37;68.51;101121.84;5119526;27;20047;-57
2021/06/29 10:44:28;;;;;;;25.70;20.08;;;;;;;23.44;69.83;101120.09;5104910;27;19960;-56
2021/06/29 10:46:56;;;;;;;24.60;20.23;;;;;;;23.51;68.29;101122.91;5098373;28;20400;-56
2021/06/29 10:49:36;;;;;;;23.90;20.05;;;;;;;23.48;68.83;101125.09;5123465;27;20051;-57
2021/06/29 10:52:06;;;;;;;26.48;20.45;;;;;;;23.48;67.97;101125.09;5132124;27;20043;-55
2021/06/29 10:54:46;;;;;;;24.30;19.80;;;;;;;23.54;68.89;101114.50;5124816;27;20044;-56
2021/06/29 10:57:16;;;;;;;24.98;19.85;;;;;;;23.61;69.23;101115.47;5112672;27;20054;-57
2021/06/29 10:59:49;;;;;;;23.10;18.65;;;;;;;23.69;67.13;101111.88;5112895;27;20051;-56
2021/06/29 11:02:35;;;;;;;22.30;18.73;;;;;;;23.60;67.68;101116.47;5091970;28;20040;-57
2021/06/29 11:05:04;;;;;;;22.10;18.02;;;;;;;23.68;68.57;101107.50;5085029;28;20043;-56
2021/06/29 11:07:37;;;;;;;22.40;18.95;;;;;;;23.49;66.93;101105.31;5095597;27;20075;-57
2021/06/29 11:10:13;;;;;;;22.38;19.13;;;;;;;23.62;66.54;101102.88;5123927;27;20047;-56
2021/06/29 11:12:52;;;;;;;22.20;17.30;;;;;;;24.05;66.77;101108.59;5107536;27;20051;-57
2021/06/29 11:15:39;;;;;;;22.73;18.40;;;;;;;23.96;66.29;101109.66;5080188;28;20063;-57
2021/06/29 11:18:06;;;;;;;21.90;18.30;;;;;;;23.95;66.43;101108.00;5087416;28;20106;-56